createdAt,value
2024-05-09T00:06:15.376Z,6.5499
2024-05-09T00:16:53.709Z,0
2024-05-09T00:22:13.453Z,0
2024-05-09T00:32:52.680Z,6.5456
2024-05-09T00:38:11.779Z,6.5499
2024-05-09T00:48:50.823Z,6.5499
2024-05-09T00:59:29.668Z,6.5456
2024-05-09T01:04:49.388Z,6.5499
2024-05-09T01:15:29.789Z,0
2024-05-09T01:20:48.924Z,0
2024-05-09T01:31:27.995Z,6.5499
2024-05-09T01:36:47.180Z,0
2024-05-09T01:47:26.097Z,4.2491
2024-05-09T01:58:07.538Z,0
2024-05-09T02:03:26.423Z,0
2024-05-09T02:14:06.246Z,0
2024-05-09T02:19:26.330Z,1.4636
2024-05-09T02:30:15.081Z,4.6664
2024-05-09T02:40:45.210Z,4.6664
2024-05-09T02:46:03.974Z,4.6664
2024-05-09T02:56:41.984Z,4.6664
2024-05-09T03:02:01.255Z,4.6664
2024-05-09T03:12:40.090Z,4.6664
2024-05-09T03:28:38.110Z,4.6664
2024-05-09T03:39:16.120Z,4.6664
2024-05-09T03:44:35.738Z,4.6664
2024-05-09T03:55:14.221Z,4.6664
2024-05-09T04:11:12.656Z,4.6664
2024-05-09T04:21:50.350Z,4.6664
2024-05-09T04:27:09.322Z,4.6664
2024-05-09T04:43:32.261Z,4.6664
2024-05-09T04:54:10.822Z,4.6664
2024-05-09T04:59:29.763Z,4.6664
2024-05-09T05:10:11.805Z,4.6664
2024-05-09T05:20:47.597Z,4.6664
2024-05-09T05:27:21.751Z,4.6664
2024-05-09T05:31:26.604Z,4.6664
2024-05-09T05:36:45.128Z,4.6664
2024-05-09T05:47:24.136Z,4.6664
2024-05-09T05:58:01.565Z,4.6664
2024-05-09T06:03:20.982Z,4.6664
2024-05-09T06:14:00.161Z,4.6664
2024-05-09T06:19:19.955Z,4.6664
2024-05-09T06:29:58.842Z,4.6664
2024-05-09T06:35:18.607Z,4.6664
2024-05-09T06:45:56.859Z,4.6664
2024-05-09T06:56:35.370Z,4.6664
2024-05-09T07:01:54.223Z,4.6664
2024-05-09T07:12:33.272Z,4.6664
2024-05-09T07:17:52.445Z,4.6664
2024-05-09T07:28:30.539Z,4.6664
2024-05-09T07:39:08.295Z,4.6664
2024-05-09T07:44:27.024Z,4.6664
2024-05-09T07:55:05.488Z,4.6664
2024-05-09T08:11:02.219Z,4.6664
2024-05-09T08:27:00.077Z,4.6664
2024-05-09T08:37:40.055Z,4.6664
2024-05-09T08:42:58.393Z,4.6664
2024-05-09T08:53:36.609Z,1.7729
2024-05-09T08:58:56.063Z,1.3028
2024-05-09T09:09:34.059Z,1.3876
2024-05-09T09:20:14.375Z,1.9717
2024-05-09T09:25:32.060Z,1.5407
2024-05-09T09:36:11.635Z,1.1495
2024-05-09T09:41:28.914Z,1.6138
2024-05-09T09:52:09.928Z,1.5847
2024-05-09T10:08:06.416Z,1.0484
2024-05-09T10:18:45.159Z,2.372
2024-05-09T10:24:04.656Z,1.8556
2024-05-09T10:34:43.433Z,2.0587
2024-05-09T10:40:02.661Z,0.6134
2024-05-09T10:50:41.211Z,0.7449
2024-05-09T11:01:19.497Z,0.609
2024-05-09T11:06:39.090Z,1.0491
2024-05-09T11:17:16.535Z,0.4956
2024-05-09T11:22:35.779Z,2.3769
2024-05-09T11:33:13.451Z,1.8445
2024-05-09T11:49:11.511Z,1.8416
2024-05-09T11:59:49.879Z,2.187
2024-05-09T12:10:32.393Z,1.4485
2024-05-09T12:15:47.904Z,1.4868
2024-05-09T12:26:26.135Z,0.951
2024-05-09T12:42:26.717Z,0.6579
2024-05-09T12:53:02.826Z,0.515
2024-05-09T12:58:21.233Z,2.1036
2024-05-09T13:08:59.715Z,2.3762
2024-05-09T13:14:19.021Z,2.5733
2024-05-09T13:24:56.743Z,0.4564
2024-05-09T13:40:54.614Z,0.7845
2024-05-09T13:51:33.496Z,1.8923
2024-05-09T13:56:52.573Z,1.7852
2024-05-09T14:07:30.693Z,1.8662
2024-05-09T14:12:49.904Z,1.4721
2024-05-09T14:23:28.784Z,1.4888
2024-05-09T14:34:06.810Z,1.6363
2024-05-09T14:39:25.739Z,1.2873
2024-05-09T14:50:05.363Z,1.1635
2024-05-09T14:55:23.000Z,0.9598
2024-05-09T15:06:00.565Z,1.1856
2024-05-09T15:16:38.439Z,1.0442
2024-05-09T15:21:57.963Z,0.9725
2024-05-09T15:32:36.240Z,0.8639
2024-05-09T15:37:54.788Z,0.7362
2024-05-09T15:48:33.213Z,0.7774
2024-05-09T15:53:51.621Z,0.6543
2024-05-09T16:04:29.819Z,0.6316
2024-05-09T16:15:08.692Z,0.4681
2024-05-09T16:20:34.235Z,0.4624
2024-05-09T16:31:06.677Z,0.1595
2024-05-09T16:36:25.443Z,0.1481
2024-05-09T16:47:03.507Z,0.1422
2024-05-09T16:57:43.111Z,0.1315
2024-05-09T17:03:01.494Z,0.1271
2024-05-09T17:13:40.420Z,0.1235
2024-05-09T17:19:00.146Z,0.1217
2024-05-09T17:29:38.744Z,0.1185
2024-05-09T17:34:58.386Z,0.1123
2024-05-09T17:45:37.057Z,0.1116
2024-05-09T18:01:35.259Z,0.1015
2024-05-09T18:12:12.914Z,4.6664
2024-05-09T18:28:09.943Z,4.6664
2024-05-09T18:38:48.985Z,4.6664
2024-05-09T18:44:08.616Z,4.6664
2024-05-09T18:49:27.859Z,4.6664
2024-05-09T18:54:46.733Z,4.6664
2024-05-09T19:05:25.112Z,4.6664
2024-05-09T19:10:43.700Z,4.6664
2024-05-09T19:21:21.429Z,4.6664
2024-05-09T19:37:18.952Z,4.6664
2024-05-09T19:47:56.946Z,4.6664
2024-05-09T19:53:15.468Z,4.6664
2024-05-09T20:03:54.187Z,4.6664
2024-05-09T20:14:31.580Z,4.6664
2024-05-09T20:19:51.582Z,4.6664
2024-05-09T20:30:31.490Z,4.6664
2024-05-09T20:35:47.142Z,4.6664
2024-05-09T20:46:25.318Z,4.6664
2024-05-09T21:02:22.760Z,4.6664
2024-05-09T21:13:01.628Z,4.6664
2024-05-09T21:18:20.082Z,4.6664
2024-05-09T21:28:57.802Z,4.6664
2024-05-09T21:39:35.892Z,4.6664
2024-05-09T21:44:55.381Z,4.6664
2024-05-09T21:55:32.696Z,4.6664
2024-05-09T22:00:51.730Z,4.6664
2024-05-09T22:11:30.784Z,4.6664
2024-05-09T22:16:49.523Z,4.6664
2024-05-09T22:27:53.351Z,4.6664
2024-05-09T22:33:13.845Z,4.6664
2024-05-09T22:39:47.962Z,4.6664
2024-05-09T22:43:52.298Z,4.6664
2024-05-09T22:59:49.953Z,4.6664
2024-05-09T23:10:34.519Z,4.6664
2024-05-09T23:15:48.316Z,4.6664
2024-05-09T23:26:27.116Z,4.6664
2024-05-09T23:31:46.354Z,4.6664
2024-05-09T23:42:24.730Z,4.6664
2024-05-09T23:53:04.562Z,4.6664
2024-05-09T23:58:23.590Z,4.6664
